Time;durP1;ratioP1;P1;durP2;ratioP2;P2;SDS_P1;SDS_P2;PMS_P1;PMS_P2;Temp;Humidity;BMP_temperature;BMP_pressure;BME280_temperature;BME280_humidity;BME280_pressure;Samples;Min_cycle;Max_cycle;Signal;HPM_P1;HPM_P2
2021/01/16 00:01:53;;;;;;;67.57;32.20;;;;;;;;;;10120060;28;20046;-62
2021/01/16 00:06:51;;;;;;;61.70;31.33;;;;;;;;;;10120840;28;20468;-63
2021/01/16 00:11:48;;;;;;;57.60;30.10;;;;;;;;;;10120786;28;20054;-61
2021/01/16 00:16:47;;;;;;;68.68;32.45;;;;;;;;;;10121078;28;20325;-63
2021/01/16 00:21:44;;;;;;;38.78;23.90;;;;;;;;;;10121092;28;20077;-63
2021/01/16 00:26:42;;;;;;;36.58;22.10;;;;;;;;;;10120146;28;20476;-63
2021/01/16 00:31:39;;;;;;;34.15;21.63;;;;;;;;;;10118615;28;20449;-62
2021/01/16 00:36:38;;;;;;;52.25;27.95;;;;;;;;;;10119792;28;20342;-61
2021/01/16 00:41:35;;;;;;;25.98;16.13;;;;;;;;;;10120144;28;20077;-62
2021/01/16 00:46:33;;;;;;;24.10;14.80;;;;;;;;;;10118857;28;20051;-62
2021/01/16 00:51:31;;;;;;;21.85;15.70;;;;;;;;;;10119471;28;20107;-62
2021/01/16 00:56:29;;;;;;;25.80;17.02;;;;;;;;;;10100449;28;20086;-62
2021/01/16 01:01:39;;;;;;;24.52;14.88;;;;;;;;;;10100978;28;20061;-62
2021/01/16 01:06:38;;;;;;;23.95;14.90;;;;;;;;;;10100780;28;20051;-62
2021/01/16 01:11:36;;;;;;;15.85;12.38;;;;;;;;;;10117679;28;20058;-62
2021/01/16 01:16:34;;;;;;;20.65;13.27;;;;;;;;;;10118710;28;20612;-62
2021/01/16 01:21:31;;;;;;;22.30;14.75;;;;;;;;;;10118124;28;20051;-62
2021/01/16 01:26:29;;;;;;;21.60;13.77;;;;;;;;;;10118555;28;20495;-61
2021/01/16 01:31:27;;;;;;;19.42;13.73;;;;;;;;;;10117744;28;20109;-62
2021/01/16 01:36:25;;;;;;;22.25;14.90;;;;;;;;;;10116696;28;20066;-61
2021/01/16 01:41:22;;;;;;;21.70;14.90;;;;;;;;;;10117599;28;20516;-62
2021/01/16 01:46:19;;;;;;;17.38;12.57;;;;;;;;;;10116933;28;20050;-61
2021/01/16 01:51:17;;;;;;;16.60;11.35;;;;;;;;;;10116395;28;20042;-61
2021/01/16 01:56:16;;;;;;;13.48;11.18;;;;;;;;;;10117139;28;20074;-61
2021/01/16 02:01:13;;;;;;;17.20;13.57;;;;;;;;;;10117033;28;20093;-63
2021/01/16 02:06:10;;;;;;;17.05;12.35;;;;;;;;;;10116058;28;20081;-62
2021/01/16 02:11:09;;;;;;;14.43;11.23;;;;;;;;;;10115935;28;20537;-62
2021/01/16 02:16:09;;;;;;;15.00;11.27;;;;;;;;;;10116243;28;20093;-63
2021/01/16 02:21:07;;;;;;;48.15;28.15;;;;;;;;;;10115745;28;20450;-63
2021/01/16 02:26:24;;;;;;;13.98;10.50;;;;;;;;;;10115494;28;20047;-63
2021/01/16 02:31:23;;;;;;;16.38;11.57;;;;;;;;;;10116556;28;20077;-62
2021/01/16 02:36:24;;;;;;;17.92;12.48;;;;;;;;;;10115981;28;20082;-62
2021/01/16 02:41:27;;;;;;;17.70;12.82;;;;;;;;;;10114545;28;20086;-63
2021/01/16 02:46:29;;;;;;;21.80;12.48;;;;;;;;;;10115430;28;20085;-61
2021/01/16 02:51:31;;;;;;;25.83;16.05;;;;;;;;;;10115255;28;20062;-62
2021/01/16 02:56:31;;;;;;;18.92;11.45;;;;;;;;;;10113590;28;20078;-62
2021/01/16 03:01:29;;;;;;;15.50;9.85;;;;;;;;;;10114934;28;20043;-62
2021/01/16 03:06:26;;;;;;;13.82;9.80;;;;;;;;;;10114709;28;20094;-62
2021/01/16 03:11:25;;;;;;;14.13;10.98;;;;;;;;;;10113801;28;20069;-62
2021/01/16 03:16:27;;;;;;;11.60;8.93;;;;;;;;;;10116009;28;20074;-63
2021/01/16 03:21:25;;;;;;;13.82;9.73;;;;;;;;;;10122828;28;20105;-63
2021/01/16 03:26:23;;;;;;;16.27;11.43;;;;;;;;;;10122832;28;20085;-63
2021/01/16 03:31:20;;;;;;;13.35;8.88;;;;;;;;;;10122889;28;20694;-62
2021/01/16 03:36:17;;;;;;;14.13;9.43;;;;;;;;;;10121935;28;20081;-63
2021/01/16 03:41:16;;;;;;;15.85;12.68;;;;;;;;;;10122141;28;20073;-62
2021/01/16 03:46:13;;;;;;;16.60;12.13;;;;;;;;;;10120997;28;20441;-62
2021/01/16 03:51:10;;;;;;;12.60;10.23;;;;;;;;;;10121000;28;20076;-62
2021/01/16 03:56:09;;;;;;;16.95;12.13;;;;;;;;;;10121649;28;20477;-62
2021/01/16 04:01:07;;;;;;;19.55;13.05;;;;;;;;;;10119992;28;20142;-62
2021/01/16 04:06:04;;;;;;;15.43;11.20;;;;;;;;;;10121361;28;20085;-62
2021/01/16 04:11:02;;;;;;;14.68;11.43;;;;;;;;;;10120550;28;20456;-62
2021/01/16 04:15:59;;;;;;;15.90;11.18;;;;;;;;;;10119797;28;20481;-62
2021/01/16 04:20:57;;;;;;;19.45;13.90;;;;;;;;;;10119925;28;20066;-62
2021/01/16 04:25:55;;;;;;;20.10;15.18;;;;;;;;;;10120584;28;20047;-62
2021/01/16 04:30:52;;;;;;;25.83;18.65;;;;;;;;;;10117813;28;20524;-61
2021/01/16 04:35:50;;;;;;;17.10;12.93;;;;;;;;;;10120057;28;20474;-63
2021/01/16 04:40:48;;;;;;;15.43;12.18;;;;;;;;;;10119781;28;20456;-63
2021/01/16 04:45:46;;;;;;;17.30;12.93;;;;;;;;;;10119014;28;20082;-63
2021/01/16 04:50:43;;;;;;;15.73;13.13;;;;;;;;;;10117625;28;20050;-63
2021/01/16 04:55:42;;;;;;;18.33;14.13;;;;;;;;;;10119618;28;20134;-62
2021/01/16 05:00:41;;;;;;;15.55;11.65;;;;;;;;;;10119159;28;20081;-61
2021/01/16 05:05:39;;;;;;;17.85;13.20;;;;;;;;;;10117878;28;20038;-62
2021/01/16 05:10:38;;;;;;;16.50;12.32;;;;;;;;;;10117710;28;20128;-63
2021/01/16 05:15:36;;;;;;;20.70;14.07;;;;;;;;;;10117607;28;20089;-63
2021/01/16 05:20:35;;;;;;;19.13;12.85;;;;;;;;;;10117577;28;20074;-62
2021/01/16 05:25:33;;;;;;;19.33;14.25;;;;;;;;;;10117879;28;20058;-61
2021/01/16 05:30:31;;;;;;;25.42;19.15;;;;;;;;;;10118130;28;20116;-61
2021/01/16 05:35:29;;;;;;;25.25;16.30;;;;;;;;;;10116368;28;20085;-61
2021/01/16 05:40:28;;;;;;;28.35;17.73;;;;;;;;;;10115389;28;20071;-62
2021/01/16 05:45:26;;;;;;;24.95;19.65;;;;;;;;;;10113823;28;20077;-62
2021/01/16 05:50:24;;;;;;;28.63;19.73;;;;;;;;;;10114550;28;20082;-63
2021/01/16 05:55:21;;;;;;;21.67;17.13;;;;;;;;;;10116312;28;20485;-63
2021/01/16 06:00:23;;;;;;;20.02;15.43;;;;;;;;;;10118103;28;20047;-63
2021/01/16 06:05:24;;;;;;;22.50;16.08;;;;;;;;;;10116968;28;20042;-63
2021/01/16 06:10:22;;;;;;;25.73;16.80;;;;;;;;;;10114994;28;20124;-62
2021/01/16 06:15:20;;;;;;;33.20;21.13;;;;;;;;;;10115747;28;20089;-62
2021/01/16 06:20:19;;;;;;;29.45;19.88;;;;;;;;;;10116809;28;20085;-61
2021/01/16 06:25:18;;;;;;;28.10;18.38;;;;;;;;;;10114541;28;20078;-62
2021/01/16 06:30:16;;;;;;;37.67;25.70;;;;;;;;;;10115309;28;20061;-61
2021/01/16 06:35:14;;;;;;;30.30;22.13;;;;;;;;;;10115628;28;20516;-63
2021/01/16 06:40:14;;;;;;;25.95;18.98;;;;;;;;;;10106638;28;20438;-63
2021/01/16 06:45:11;;;;;;;30.83;19.88;;;;;;;;;;10093258;28;20079;-63
2021/01/16 06:50:09;;;;;;;27.55;19.33;;;;;;;;;;10094904;28;20071;-63
2021/01/16 06:55:07;;;;;;;32.95;22.45;;;;;;;;;;10102281;28;20078;-63
2021/01/16 07:00:07;;;;;;;46.20;30.02;;;;;;;;;;10099642;28;20089;-63
2021/01/16 07:05:05;;;;;;;269.17;93.82;;;;;;;;;;10098054;28;20067;-63
2021/01/16 07:10:07;;;;;;;24.98;18.20;;;;;;;;;;10083812;29;20105;-62
2021/01/16 07:15:05;;;;;;;26.85;21.48;;;;;;;;;;10082995;29;20082;-63
2021/01/16 07:20:04;;;;;;;24.55;18.10;;;;;;;;;;10083839;29;20075;-62
2021/01/16 07:25:03;;;;;;;25.92;18.67;;;;;;;;;;10083110;29;20074;-62
2021/01/16 07:30:01;;;;;;;59.92;39.78;;;;;;;;;;10082441;28;20040;-62
2021/01/16 07:34:59;;;;;;;31.55;22.75;;;;;;;;;;10082920;28;20086;-63
2021/01/16 07:39:57;;;;;;;40.85;26.77;;;;;;;;;;10082330;29;20080;-62
2021/01/16 07:45:06;;;;;;;34.25;23.73;;;;;;;;;;10081546;29;20047;-62
2021/01/16 07:50:10;;;;;;;44.13;30.38;;;;;;;;;;10083015;29;20078;-62
2021/01/16 07:55:09;;;;;;;42.72;29.30;;;;;;;;;;10082476;29;20148;-63
2021/01/16 08:00:08;;;;;;;45.55;31.13;;;;;;;;;;10064669;29;20054;-63
2021/01/16 08:05:12;;;;;;;50.00;32.20;;;;;;;;;;10080903;28;20075;-62
2021/01/16 08:10:14;;;;;;;84.28;51.38;;;;;;;;;;10081470;29;20086;-62
2021/01/16 08:15:15;;;;;;;62.88;42.13;;;;;;;;;;10090908;28;20101;-62
2021/01/16 08:20:18;;;;;;;44.67;26.80;;;;;;;;;;10099447;28;20079;-63
2021/01/16 08:25:16;;;;;;;68.03;36.75;;;;;;;;;;10081571;28;20067;-63
2021/01/16 08:30:14;;;;;;;59.67;33.97;;;;;;;;;;10081057;29;20162;-63
2021/01/16 08:35:20;;;;;;;33.35;24.58;;;;;;;;;;10080228;29;20089;-62
2021/01/16 08:40:32;;;;;;;39.05;27.33;;;;;;;;;;10080337;29;20083;-62
2021/01/16 08:45:30;;;;;;;91.28;52.72;;;;;;;;;;10092692;28;20082;-62
2021/01/16 08:50:29;;;;;;;87.38;56.05;;;;;;;;;;10115257;28;20077;-62
2021/01/16 08:55:27;;;;;;;35.80;23.75;;;;;;;;;;10118827;28;20082;-62
2021/01/16 09:00:24;;;;;;;63.90;45.67;;;;;;;;;;10119322;28;20071;-62
2021/01/16 09:05:23;;;;;;;66.30;43.80;;;;;;;;;;10119077;28;20598;-62
2021/01/16 09:10:24;;;;;;;62.05;36.78;;;;;;;;;;10118638;28;20086;-63
2021/01/16 09:15:24;;;;;;;30.92;22.85;;;;;;;;;;10117933;28;20097;-63
2021/01/16 09:20:24;;;;;;;44.28;29.30;;;;;;;;;;10118423;28;20070;-64
2021/01/16 09:25:22;;;;;;;42.25;28.65;;;;;;;;;;10117660;28;20074;-64
2021/01/16 09:30:20;;;;;;;56.25;30.85;;;;;;;;;;10119826;28;20117;-63
2021/01/16 09:35:32;;;;;;;117.47;67.28;;;;;;;;;;10117901;28;20078;-62
2021/01/16 09:40:37;;;;;;;65.78;33.70;;;;;;;;;;10116601;28;20058;-63
2021/01/16 09:45:49;;;;;;;56.50;36.22;;;;;;;;;;10117632;28;20437;-63
2021/01/16 09:50:46;;;;;;;144.45;59.58;;;;;;;;;;10117487;28;20090;-63
2021/01/16 09:55:44;;;;;;;29.58;20.50;;;;;;;;;;10116619;28;20528;-62
2021/01/16 10:00:41;;;;;;;148.27;65.05;;;;;;;;;;10116545;28;20078;-63
2021/01/16 10:05:39;;;;;;;170.13;72.10;;;;;;;;;;10116690;28;20066;-62
2021/01/16 10:10:44;;;;;;;30.33;17.48;;;;;;;;;;10109831;28;20094;-62
2021/01/16 10:15:49;;;;;;;89.03;39.17;;;;;;;;;;10108279;28;20078;-63
2021/01/16 10:20:58;;;;;;;165.50;58.38;;;;;;;;;;10087463;28;20075;-62
2021/01/16 10:26:01;;;;;;;50.63;29.15;;;;;;;;;;10094268;28;20067;-63
2021/01/16 10:30:59;;;;;;;121.47;49.58;;;;;;;;;;10076100;29;20074;-63
2021/01/16 10:36:07;;;;;;;104.22;46.08;;;;;;;;;;10077120;29;20481;-63
2021/01/16 10:41:06;;;;;;;29.70;19.63;;;;;;;;;;10076579;29;20047;-64
2021/01/16 10:46:09;;;;;;;51.55;29.70;;;;;;;;;;10075305;29;20050;-63
2021/01/16 10:51:08;;;;;;;34.03;20.77;;;;;;;;;;10077129;29;20055;-63
2021/01/16 10:56:12;;;;;;;48.47;25.73;;;;;;;;;;10076056;29;20086;-63
2021/01/16 11:01:10;;;;;;;74.10;38.60;;;;;;;;;;10075057;29;20531;-63
2021/01/16 11:06:10;;;;;;;137.00;65.43;;;;;;;;;;10075781;29;20055;-63
2021/01/16 11:11:24;;;;;;;63.60;41.17;;;;;;;;;;10075478;28;20087;-64
2021/01/16 11:16:23;;;;;;;29.07;18.00;;;;;;;;;;10075850;29;20083;-64
2021/01/16 11:21:44;;;;;;;33.47;21.50;;;;;;;;;;10076176;29;20413;-62
2021/01/16 11:26:47;;;;;;;90.57;46.95;;;;;;;;;;10075549;29;20062;-61
2021/01/16 11:31:47;;;;;;;44.58;27.70;;;;;;;;;;10075465;29;20070;-62
2021/01/16 11:36:54;;;;;;;52.88;32.30;;;;;;;;;;10075756;28;20086;-64
2021/01/16 11:41:53;;;;;;;43.58;25.95;;;;;;;;;;10091494;28;20079;-63
2021/01/16 11:46:53;;;;;;;44.53;29.05;;;;;;;;;;10085676;28;20413;-63
2021/01/16 11:51:51;;;;;;;44.25;25.40;;;;;;;;;;10082513;29;20067;-63
2021/01/16 11:56:48;;;;;;;42.45;26.45;;;;;;;;;;10082267;29;20082;-63
2021/01/16 12:01:47;;;;;;;40.15;26.25;;;;;;;;;;10081549;29;20079;-64
2021/01/16 12:06:45;;;;;;;46.47;28.30;;;;;;;;;;10080811;29;20087;-63
2021/01/16 12:11:51;;;;;;;51.47;30.58;;;;;;;;;;10081695;29;20094;-62
2021/01/16 12:16:49;;;;;;;84.22;43.42;;;;;;;;;;10082154;29;20083;-60
2021/01/16 12:21:47;;;;;;;74.97;43.28;;;;;;;;;;10081578;29;20445;-61
2021/01/16 12:26:49;;;;;;;42.28;26.10;;;;;;;;;;10081613;29;20070;-60
2021/01/16 12:31:58;;;;;;;94.90;44.72;;;;;;;;;;10080537;29;20047;-61
2021/01/16 12:36:56;;;;;;;60.72;33.00;;;;;;;;;;10080249;29;20078;-60
2021/01/16 12:41:57;;;;;;;28.48;18.40;;;;;;;;;;10080313;29;20086;-62
2021/01/16 12:46:54;;;;;;;31.60;22.45;;;;;;;;;;10063658;29;20051;-61
2021/01/16 12:51:52;;;;;;;26.40;17.40;;;;;;;;;;10079880;28;20047;-61
2021/01/16 12:56:50;;;;;;;37.25;21.40;;;;;;;;;;10079480;29;20082;-61
2021/01/16 13:01:49;;;;;;;35.20;22.17;;;;;;;;;;10079831;29;20081;-60
2021/01/16 13:06:48;;;;;;;35.22;24.33;;;;;;;;;;10079126;29;20051;-61
2021/01/16 13:11:45;;;;;;;81.82;48.47;;;;;;;;;;10079935;29;20328;-61
2021/01/16 13:16:44;;;;;;;54.92;36.88;;;;;;;;;;10080240;29;20513;-61
2021/01/16 13:21:48;;;;;;;87.88;59.88;;;;;;;;;;10079475;29;20094;-60
2021/01/16 13:26:45;;;;;;;68.57;39.47;;;;;;;;;;10079614;29;20063;-60
2021/01/16 13:31:45;;;;;;;52.20;28.70;;;;;;;;;;10079163;29;20517;-60
2021/01/16 13:36:45;;;;;;;44.22;26.17;;;;;;;;;;10078926;29;20090;-60
2021/01/16 13:41:43;;;;;;;66.30;42.22;;;;;;;;;;10078503;29;20077;-61
2021/01/16 13:46:43;;;;;;;66.32;40.38;;;;;;;;;;10078566;29;20047;-61
2021/01/16 13:51:42;;;;;;;57.17;33.40;;;;;;;;;;10078963;29;20051;-62
2021/01/16 13:56:44;;;;;;;42.25;25.23;;;;;;;;;;10075643;29;20082;-61
2021/01/16 14:01:42;;;;;;;38.60;26.63;;;;;;;;;;10077185;28;20088;-62
2021/01/16 14:06:57;;;;;;;32.80;23.60;;;;;;;;;;10077796;29;20078;-62
2021/01/16 14:11:57;;;;;;;77.07;48.90;;;;;;;;;;10077148;29;20536;-62
2021/01/16 14:17:07;;;;;;;37.25;23.25;;;;;;;;;;10076222;29;20141;-64
2021/01/16 14:22:04;;;;;;;72.63;44.28;;;;;;;;;;10076306;29;20078;-62
2021/01/16 14:27:03;;;;;;;31.50;21.27;;;;;;;;;;10075812;29;20074;-61
2021/01/16 14:32:01;;;;;;;58.00;30.63;;;;;;;;;;10076211;29;20094;-61
2021/01/16 14:36:59;;;;;;;40.72;27.60;;;;;;;;;;10075973;28;20094;-62
2021/01/16 14:41:56;;;;;;;142.52;86.13;;;;;;;;;;10076610;29;20051;-62
2021/01/16 14:46:55;;;;;;;51.90;30.80;;;;;;;;;;10076499;29;20047;-62
2021/01/16 14:51:54;;;;;;;112.97;63.67;;;;;;;;;;10076955;29;20474;-60
2021/01/16 14:56:52;;;;;;;77.13;49.28;;;;;;;;;;10076838;29;20083;-61
2021/01/16 15:01:50;;;;;;;68.75;42.50;;;;;;;;;;10075807;29;20082;-61
2021/01/16 15:06:49;;;;;;;90.35;51.65;;;;;;;;;;10076572;29;20417;-61
2021/01/16 15:11:54;;;;;;;57.50;33.85;;;;;;;;;;10075504;28;20059;-60
2021/01/16 15:16:51;;;;;;;47.88;29.70;;;;;;;;;;10094687;28;20075;-61
2021/01/16 15:21:49;;;;;;;53.63;30.67;;;;;;;;;;10120028;28;20082;-61
2021/01/16 15:26:47;;;;;;;125.72;65.35;;;;;;;;;;10121102;28;20105;-61
2021/01/16 15:31:44;;;;;;;57.78;32.05;;;;;;;;;;10117779;28;20418;-61
2021/01/16 15:36:42;;;;;;;79.60;43.22;;;;;;;;;;10116134;28;20496;-60
2021/01/16 15:41:44;;;;;;;61.47;35.97;;;;;;;;;;10121722;28;20424;-61
2021/01/16 15:46:41;;;;;;;43.17;28.40;;;;;;;;;;10118763;28;20082;-59
2021/01/16 15:51:39;;;;;;;102.53;65.90;;;;;;;;;;10122222;28;20047;-60
2021/01/16 15:56:37;;;;;;;83.25;52.75;;;;;;;;;;10121962;28;20503;-61
2021/01/16 16:01:36;;;;;;;59.92;35.85;;;;;;;;;;10121340;28;20174;-61
2021/01/16 16:06:34;;;;;;;84.75;49.65;;;;;;;;;;10120850;28;20090;-61
2021/01/16 16:11:32;;;;;;;57.83;36.95;;;;;;;;;;10120160;28;20074;-61
2021/01/16 16:16:29;;;;;;;73.97;40.58;;;;;;;;;;10120273;28;20086;-60
2021/01/16 16:21:28;;;;;;;78.38;43.63;;;;;;;;;;10120642;28;20050;-61
2021/01/16 16:26:25;;;;;;;87.55;48.80;;;;;;;;;;10102770;28;20085;-62
2021/01/16 16:31:23;;;;;;;52.92;32.78;;;;;;;;;;10096045;28;20142;-60
2021/01/16 16:36:20;;;;;;;41.45;29.75;;;;;;;;;;10117520;28;20078;-60
2021/01/16 16:41:19;;;;;;;42.10;27.23;;;;;;;;;;10105557;28;20066;-63
2021/01/16 16:46:16;;;;;;;49.33;30.80;;;;;;;;;;10119361;28;20046;-60
2021/01/16 16:51:14;;;;;;;69.88;40.97;;;;;;;;;;10117359;28;20500;-62
2021/01/16 16:56:11;;;;;;;57.25;35.20;;;;;;;;;;10117906;28;20078;-61
2021/01/16 17:01:10;;;;;;;55.28;34.17;;;;;;;;;;10119113;28;20070;-60
2021/01/16 17:06:08;;;;;;;67.55;42.17;;;;;;;;;;10117078;28;20526;-59
2021/01/16 17:11:06;;;;;;;86.47;52.83;;;;;;;;;;10110894;28;20078;-62
2021/01/16 17:16:04;;;;;;;78.25;48.75;;;;;;;;;;10115736;28;20078;-58
2021/01/16 17:21:02;;;;;;;78.60;46.88;;;;;;;;;;10116192;28;20513;-60
2021/01/16 17:26:00;;;;;;;64.25;39.33;;;;;;;;;;10115710;28;20082;-60
2021/01/16 17:30:57;;;;;;;70.50;40.17;;;;;;;;;;10113144;28;20067;-60
2021/01/16 17:35:55;;;;;;;67.45;43.88;;;;;;;;;;10114068;28;20150;-61
2021/01/16 17:40:53;;;;;;;78.35;48.50;;;;;;;;;;10115385;28;20054;-58
2021/01/16 17:45:51;;;;;;;80.03;47.67;;;;;;;;;;10115586;28;20062;-60
2021/01/16 17:50:48;;;;;;;97.75;51.50;;;;;;;;;;10116240;28;20078;-61
2021/01/16 17:55:48;;;;;;;124.53;69.63;;;;;;;;;;10097658;28;20082;-61
2021/01/16 18:00:46;;;;;;;114.20;60.53;;;;;;;;;;10115088;28;20046;-60
2021/01/16 18:05:45;;;;;;;71.82;41.47;;;;;;;;;;10116937;28;20074;-60
2021/01/16 18:10:42;;;;;;;69.13;43.72;;;;;;;;;;10111086;28;20086;-59
2021/01/16 18:15:40;;;;;;;66.60;38.30;;;;;;;;;;10114595;28;20078;-60
2021/01/16 18:20:38;;;;;;;78.18;47.35;;;;;;;;;;10116213;28;20501;-60
2021/01/16 18:25:35;;;;;;;76.38;41.88;;;;;;;;;;10115771;28;20509;-60
2021/01/16 18:30:33;;;;;;;117.57;64.55;;;;;;;;;;10115072;28;20089;-57
2021/01/16 18:35:31;;;;;;;267.17;117.10;;;;;;;;;;10098250;28;20046;-61
2021/01/16 18:40:30;;;;;;;100.18;44.95;;;;;;;;;;10114557;28;20078;-60
2021/01/16 18:45:27;;;;;;;124.45;63.60;;;;;;;;;;10114349;28;20063;-59
2021/01/16 18:50:25;;;;;;;239.60;98.45;;;;;;;;;;10114807;28;20496;-61
2021/01/16 18:55:22;;;;;;;123.10;62.88;;;;;;;;;;10114954;28;20050;-62
2021/01/16 19:00:21;;;;;;;122.20;60.30;;;;;;;;;;10115796;28;20085;-61
2021/01/16 19:05:21;;;;;;;106.45;55.00;;;;;;;;;;10115854;28;20077;-58
2021/01/16 19:10:18;;;;;;;77.03;41.38;;;;;;;;;;10114187;28;20090;-61
2021/01/16 19:15:16;;;;;;;65.55;39.83;;;;;;;;;;10115168;28;20078;-60
2021/01/16 19:20:14;;;;;;;76.72;47.38;;;;;;;;;;10115453;28;20476;-60
2021/01/16 19:25:19;;;;;;;70.65;41.28;;;;;;;;;;10115371;28;20514;-60
2021/01/16 19:30:19;;;;;;;73.57;42.30;;;;;;;;;;10115334;28;20085;-59
2021/01/16 19:35:17;;;;;;;154.23;70.85;;;;;;;;;;10114385;28;20082;-61
2021/01/16 19:40:15;;;;;;;191.57;93.28;;;;;;;;;;10110370;28;20078;-61
2021/01/16 19:45:13;;;;;;;73.93;38.60;;;;;;;;;;10107481;28;20074;-60
2021/01/16 19:50:13;;;;;;;62.67;33.28;;;;;;;;;;10100039;28;20133;-60
2021/01/16 19:55:12;;;;;;;59.75;28.50;;;;;;;;;;10104659;28;20483;-55
2021/01/16 20:00:09;;;;;;;61.00;28.58;;;;;;;;;;10114670;28;20086;-59
2021/01/16 20:05:07;;;;;;;65.85;35.85;;;;;;;;;;10106789;28;20504;-59
2021/01/16 20:10:06;;;;;;;113.90;56.15;;;;;;;;;;10101086;28;20058;-61
2021/01/16 20:15:05;;;;;;;72.78;38.45;;;;;;;;;;10117061;28;20078;-60
2021/01/16 20:20:07;;;;;;;82.95;44.33;;;;;;;;;;10101504;28;20082;-58
2021/01/16 20:25:04;;;;;;;72.35;38.47;;;;;;;;;;10113170;28;20066;-60
2021/01/16 20:30:03;;;;;;;135.88;59.70;;;;;;;;;;10118074;28;20564;-60
2021/01/16 20:35:01;;;;;;;88.68;41.67;;;;;;;;;;10115364;28;20070;-61
2021/01/16 20:39:59;;;;;;;61.92;31.77;;;;;;;;;;10115538;28;20530;-61
2021/01/16 20:44:56;;;;;;;55.45;30.45;;;;;;;;;;10117851;28;20512;-59
2021/01/16 20:49:53;;;;;;;40.53;24.75;;;;;;;;;;10117492;28;20066;-60
2021/01/16 20:54:52;;;;;;;52.25;33.17;;;;;;;;;;10118444;28;20035;-59
2021/01/16 20:59:49;;;;;;;38.83;27.17;;;;;;;;;;10117829;28;20074;-61
2021/01/16 21:04:47;;;;;;;41.47;25.95;;;;;;;;;;10118218;28;20078;-59
2021/01/16 21:09:44;;;;;;;54.92;31.20;;;;;;;;;;10118243;28;20055;-60
2021/01/16 21:14:42;;;;;;;35.22;22.95;;;;;;;;;;10118316;28;20082;-60
2021/01/16 21:19:40;;;;;;;35.95;21.50;;;;;;;;;;10118119;28;20117;-58
2021/01/16 21:24:37;;;;;;;30.50;19.73;;;;;;;;;;10118612;28;20077;-61
2021/01/16 21:29:35;;;;;;;19.35;14.35;;;;;;;;;;10117641;28;20519;-60
2021/01/16 21:34:33;;;;;;;32.75;17.67;;;;;;;;;;10118245;28;20059;-60
2021/01/16 21:39:30;;;;;;;26.75;18.40;;;;;;;;;;10117132;28;20113;-62
2021/01/16 21:44:27;;;;;;;25.15;17.90;;;;;;;;;;10117203;28;20522;-60
2021/01/16 21:49:25;;;;;;;19.17;13.88;;;;;;;;;;10113251;28;20047;-60
2021/01/16 21:54:24;;;;;;;22.48;15.32;;;;;;;;;;10094050;28;20078;-61
2021/01/16 21:59:21;;;;;;;27.02;17.85;;;;;;;;;;10096699;28;20070;-60
2021/01/16 22:04:18;;;;;;;42.95;26.33;;;;;;;;;;10097736;28;20103;-60
2021/01/16 22:09:17;;;;;;;34.53;21.63;;;;;;;;;;10095941;28;20484;-59
2021/01/16 22:14:16;;;;;;;29.73;19.92;;;;;;;;;;10075423;28;20141;-61
2021/01/16 22:19:16;;;;;;;49.80;26.60;;;;;;;;;;10093320;28;20101;-60
2021/01/16 22:24:15;;;;;;;31.73;19.77;;;;;;;;;;10077659;28;20497;-59
2021/01/16 22:29:13;;;;;;;49.15;21.92;;;;;;;;;;10075792;28;20097;-61
2021/01/16 22:34:11;;;;;;;30.30;17.20;;;;;;;;;;10093865;28;20210;-61
2021/01/16 22:39:09;;;;;;;20.38;13.82;;;;;;;;;;10093213;28;20078;-60
2021/01/16 22:44:08;;;;;;;19.75;13.93;;;;;;;;;;10093726;28;20078;-58
2021/01/16 22:49:06;;;;;;;25.15;15.07;;;;;;;;;;10076118;28;20082;-59
2021/01/16 22:54:06;;;;;;;34.20;23.33;;;;;;;;;;10075273;28;20085;-59
2021/01/16 22:59:04;;;;;;;21.65;13.23;;;;;;;;;;10076161;28;20074;-59
2021/01/16 23:04:02;;;;;;;33.42;20.40;;;;;;;;;;10074636;28;20559;-62
2021/01/16 23:08:59;;;;;;;25.17;13.35;;;;;;;;;;10094336;28;20214;-60
2021/01/16 23:13:58;;;;;;;32.75;18.25;;;;;;;;;;10092571;28;20062;-59
2021/01/16 23:18:56;;;;;;;24.77;15.48;;;;;;;;;;10086347;28;20079;-60
2021/01/16 23:23:54;;;;;;;44.70;24.00;;;;;;;;;;10090854;28;20050;-60
2021/01/16 23:28:51;;;;;;;46.97;28.25;;;;;;;;;;10099860;28;20050;-58
2021/01/16 23:33:50;;;;;;;40.33;21.75;;;;;;;;;;10096622;28;20125;-60
2021/01/16 23:38:49;;;;;;;25.38;17.67;;;;;;;;;;10074860;28;20142;-58
2021/01/16 23:43:48;;;;;;;30.05;17.73;;;;;;;;;;10102202;28;20070;-59
2021/01/16 23:48:46;;;;;;;17.48;12.63;;;;;;;;;;10084071;28;20074;-60
2021/01/16 23:53:45;;;;;;;17.92;11.25;;;;;;;;;;10098720;28;20074;-61
2021/01/16 23:58:43;;;;;;;17.58;12.00;;;;;;;;;;10101026;28;20082;-59
